PWSweather.com
Personal Weather Stations
Station Observations
KC4YGB
E3801 Natural Bridge Road, Rock Cave, WV 26234

E3801 Natural Bridge RoadRock Cave, WV 26234

Lat: 38.842212, Lon: -80.272288

Elevation: 1857

Station Type: Davis Vantage Vue

https://www.facebook.com/WVWXA

Latest ConditionsUpdated 11:51:09 AM EST Monday, Jan 23, 2017
Currently Today's Max Today's Min Today's Average
Temperature 43.6°F6.4°C 53.9°F12.2°C 43.6°F6.4°C 49.8°F9.9°C
Dew Point 40.3°F4.6°C 46.2°F7.9°C 39.5°F4.2°C 42.8°F6.0°C
Winds Calm Calm 19.0 mph SE30.6 kmh SE - 4.8 mph 7.7 kmh
Wind Gusts -- 23.0 mph37.0 kmh - -
Humidity 88% 88% 71% 77%
Pressure 29.39 in995.3 mb 29.42 in996.3 mb 29.33 in993.2 mb -
Precipitation - 0.13 in3.3 mm - -
Hour Temp Dew Point Humidity Winds Wind Gusts Pressure Precip Precip Rate Daily Precip Total
11:51 AM 43.6°F6.4°C 40.3°F4.6°C 88% Calm Calm -- 29.39 in995.3 mb 0.22 in5.6 mm 0.36 in9.1 mm 0.13 in3.3 mm
11:46 AM 43.9°F6.6°C 40.3°F4.6°C 87% Calm Calm 1.0 mph1.6 kmh 29.40 in995.6 mb 0.19 in4.8 mm 0.84 in21.3 mm 0.12 in3.0 mm
11:41 AM 44.1°F6.7°C 40.2°F4.6°C 86% Calm Calm 1.0 mph1.6 kmh 29.40 in995.6 mb 0.12 in3.0 mm 0.60 in15.2 mm 0.10 in2.5 mm
11:36 AM 44.3°F6.8°C 40.4°F4.7°C 86% Calm Calm 3.0 mph4.8 kmh 29.39 in995.3 mb 0.07 in1.8 mm 0.00 in0.0 mm 0.09 in2.3 mm
11:31 AM 44.5°F6.9°C 40.6°F4.8°C 86% 1.0 mph SE1.6 kmh SE 3.0 mph4.8 kmh 29.39 in995.3 mb 0.09 in2.3 mm 0.00 in0.0 mm 0.08 in2.0 mm
11:26 AM 44.9°F7.2°C 40.7°F4.8°C 85% 1.0 mph S1.6 kmh S 4.0 mph6.4 kmh 29.39 in995.3 mb 0.13 in3.3 mm 0.00 in0.0 mm 0.08 in2.0 mm
11:21 AM 45.2°F7.3°C 40.7°F4.8°C 84% 1.0 mph SW1.6 kmh SW 1.0 mph1.6 kmh 29.39 in995.3 mb 0.14 in3.6 mm 0.48 in12.2 mm 0.07 in1.8 mm
11:16 AM 45.5°F7.5°C 40.6°F4.8°C 83% 2.0 mph ESE3.2 kmh ESE 5.0 mph8.0 kmh 29.39 in995.3 mb 0.10 in2.5 mm 0.00 in0.0 mm 0.06 in1.5 mm
11:11 AM 46.0°F7.8°C 40.5°F4.7°C 81% 1.0 mph ESE1.6 kmh ESE 4.0 mph6.4 kmh 29.39 in995.3 mb 0.23 in5.8 mm 2.76 in70.1 mm 0.05 in1.3 mm
11:06 AM 46.6°F8.1°C 40.1°F4.5°C 78% 2.0 mph SE3.2 kmh SE 6.0 mph9.7 kmh 29.39 in995.3 mb 0.00 in0.0 mm 0.00 in0.0 mm 0.03 in0.8 mm
11:01 AM 47.2°F8.4°C 40.0°F4.4°C 76% 2.0 mph SE3.2 kmh SE 3.0 mph4.8 kmh 29.38 in994.9 mb 0.00 in0.0 mm 0.00 in0.0 mm 0.03 in0.8 mm
10:56 AM 47.4°F8.6°C 39.5°F4.2°C 74% Calm Calm 3.0 mph4.8 kmh 29.38 in994.9 mb 0.00 in0.0 mm 0.00 in0.0 mm 0.03 in0.8 mm
10:51 AM 47.5°F8.6°C 39.6°F4.2°C 74% Calm Calm 1.0 mph1.6 kmh 29.38 in994.9 mb 0.00 in0.0 mm 0.00 in0.0 mm 0.03 in0.8 mm
10:46 AM 47.6°F8.7°C 39.7°F4.3°C 74% Calm Calm 3.0 mph4.8 kmh 29.37 in994.6 mb 0.00 in0.0 mm 0.00 in0.0 mm 0.03 in0.8 mm
10:41 AM 47.7°F8.7°C 39.5°F4.2°C 73% 2.0 mph SE3.2 kmh SE 3.0 mph4.8 kmh 29.37 in994.6 mb 0.00 in0.0 mm 0.00 in0.0 mm 0.03 in0.8 mm
10:36 AM 47.7°F8.7°C 39.5°F4.2°C 73% 4.0 mph ESE6.4 kmh ESE 10.0 mph16.1 kmh 29.36 in994.2 mb 0.00 in0.0 mm 0.00 in0.0 mm 0.03 in0.8 mm
10:31 AM 47.8°F8.8°C 40.3°F4.6°C 75% 3.0 mph S4.8 kmh S 10.0 mph16.1 kmh 29.37 in994.6 mb 0.00 in0.0 mm 0.00 in0.0 mm 0.03 in0.8 mm
10:26 AM 47.9°F8.8°C 40.0°F4.4°C 74% Calm Calm 7.0 mph11.3 kmh 29.37 in994.6 mb 0.00 in0.0 mm 0.00 in0.0 mm 0.03 in0.8 mm
10:21 AM 47.9°F8.8°C 40.0°F4.4°C 74% Calm Calm 3.0 mph4.8 kmh 29.37 in994.6 mb 0.00 in0.0 mm 0.00 in0.0 mm 0.03 in0.8 mm
10:16 AM 47.9°F8.8°C 40.0°F4.4°C 74% 1.0 mph SE1.6 kmh SE 11.0 mph17.7 kmh 29.36 in994.2 mb 0.00 in0.0 mm 0.00 in0.0 mm 0.03 in0.8 mm
10:11 AM 47.9°F8.8°C 40.4°F4.7°C 75% 1.0 mph S1.6 kmh S 1.0 mph1.6 kmh 29.36 in994.2 mb 0.00 in0.0 mm 0.00 in0.0 mm 0.03 in0.8 mm
10:06 AM 47.9°F8.8°C 40.0°F4.4°C 74% Calm Calm 6.0 mph9.7 kmh 29.36 in994.2 mb 0.00 in0.0 mm 0.00 in0.0 mm 0.03 in0.8 mm
10:01 AM 47.9°F8.8°C 39.7°F4.3°C 73% 2.0 mph ESE3.2 kmh ESE 6.0 mph9.7 kmh 29.35 in993.9 mb 0.00 in0.0 mm 0.00 in0.0 mm 0.03 in0.8 mm
09:56 AM 47.9°F8.8°C 39.7°F4.3°C 73% 7.0 mph ESE11.3 kmh ESE 10.0 mph16.1 kmh 29.35 in993.9 mb 0.00 in0.0 mm 0.00 in0.0 mm 0.03 in0.8 mm
09:51 AM 47.9°F8.8°C 39.7°F4.3°C 73% 2.0 mph NW3.2 kmh NW 10.0 mph16.1 kmh 29.36 in994.2 mb 0.00 in0.0 mm 0.00 in0.0 mm 0.03 in0.8 mm
09:46 AM 47.9°F8.8°C 40.0°F4.4°C 74% 3.0 mph SE4.8 kmh SE 4.0 mph6.4 kmh 29.36 in994.2 mb 0.00 in0.0 mm 0.00 in0.0 mm 0.03 in0.8 mm
09:41 AM 47.9°F8.8°C 39.7°F4.3°C 73% 2.0 mph SE3.2 kmh SE 4.0 mph6.4 kmh 29.35 in993.9 mb 0.00 in0.0 mm 0.00 in0.0 mm 0.03 in0.8 mm
09:36 AM 47.9°F8.8°C 40.4°F4.7°C 75% 6.0 mph ESE9.7 kmh ESE 8.0 mph12.9 kmh 29.36 in994.2 mb 0.00 in0.0 mm 0.00 in0.0 mm 0.03 in0.8 mm
09:31 AM 47.9°F8.8°C 40.4°F4.7°C 75% 1.0 mph SSW1.6 kmh SSW 8.0 mph12.9 kmh 29.35 in993.9 mb 0.00 in0.0 mm 0.00 in0.0 mm 0.03 in0.8 mm
09:26 AM 47.7°F8.7°C 40.2°F4.6°C 75% 3.0 mph E4.8 kmh E 10.0 mph16.1 kmh 29.35 in993.9 mb 0.00 in0.0 mm 0.00 in0.0 mm 0.03 in0.8 mm
09:21 AM 47.7°F8.7°C 40.5°F4.7°C 76% 1.0 mph SE1.6 kmh SE 3.0 mph4.8 kmh 29.35 in993.9 mb 0.00 in0.0 mm 0.00 in0.0 mm 0.03 in0.8 mm
09:16 AM 47.6°F8.7°C 40.7°F4.8°C 77% Calm Calm 6.0 mph9.7 kmh 29.35 in993.9 mb 0.00 in0.0 mm 0.00 in0.0 mm 0.03 in0.8 mm
09:11 AM 47.5°F8.6°C 40.6°F4.8°C 77% Calm Calm 3.0 mph4.8 kmh 29.34 in993.6 mb 0.00 in0.0 mm 0.00 in0.0 mm 0.03 in0.8 mm
09:06 AM 47.5°F8.6°C 40.6°F4.8°C 77% 1.0 mph E1.6 kmh E 3.0 mph4.8 kmh 29.34 in993.6 mb 0.00 in0.0 mm 0.00 in0.0 mm 0.03 in0.8 mm
09:01 AM 47.4°F8.6°C 40.9°F4.9°C 78% 1.0 mph SE1.6 kmh SE 3.0 mph4.8 kmh 29.34 in993.6 mb 0.00 in0.0 mm 0.00 in0.0 mm 0.03 in0.8 mm
08:56 AM 47.3°F8.5°C 40.8°F4.9°C 78% 2.0 mph SE3.2 kmh SE 6.0 mph9.7 kmh 29.34 in993.6 mb 0.00 in0.0 mm 0.00 in0.0 mm 0.03 in0.8 mm
08:51 AM 47.1°F8.4°C 40.9°F4.9°C 79% 3.0 mph NE4.8 kmh NE 6.0 mph9.7 kmh 29.34 in993.6 mb 0.00 in0.0 mm 0.00 in0.0 mm 0.03 in0.8 mm
08:46 AM 46.7°F8.2°C 41.2°F5.1°C 81% 3.0 mph E4.8 kmh E 5.0 mph8.0 kmh 29.34 in993.6 mb 0.00 in0.0 mm 0.00 in0.0 mm 0.03 in0.8 mm
08:41 AM 46.6°F8.1°C 41.4°F5.2°C 82% Calm Calm 1.0 mph1.6 kmh 29.35 in993.9 mb 0.00 in0.0 mm 0.00 in0.0 mm 0.03 in0.8 mm
08:36 AM 46.5°F8.1°C 41.3°F5.2°C 82% Calm Calm 7.0 mph11.3 kmh 29.35 in993.9 mb 0.00 in0.0 mm 0.00 in0.0 mm 0.03 in0.8 mm
08:31 AM 46.4°F8.0°C 41.2°F5.1°C 82% 1.0 mph SE1.6 kmh SE 4.0 mph6.4 kmh 29.34 in993.6 mb 0.00 in0.0 mm 0.00 in0.0 mm 0.03 in0.8 mm
08:26 AM 46.3°F7.9°C 41.4°F5.2°C 83% 1.0 mph SE1.6 kmh SE 6.0 mph9.7 kmh 29.34 in993.6 mb 0.00 in0.0 mm 0.00 in0.0 mm 0.03 in0.8 mm
08:21 AM 46.1°F7.8°C 41.5°F5.3°C 84% 4.0 mph W6.4 kmh W 4.0 mph6.4 kmh 29.34 in993.6 mb 0.00 in0.0 mm 0.00 in0.0 mm 0.03 in0.8 mm
08:17 AM 46.1°F7.8°C 41.8°F5.4°C 85% 2.0 mph SE3.2 kmh SE 3.0 mph4.8 kmh 29.34 in993.6 mb 0.00 in0.0 mm 0.00 in0.0 mm 0.03 in0.8 mm
08:11 AM 46.0°F7.8°C 41.7°F5.4°C 85% Calm Calm 1.0 mph1.6 kmh 29.34 in993.6 mb 0.00 in0.0 mm 0.00 in0.0 mm 0.03 in0.8 mm
08:06 AM 45.8°F7.7°C 41.9°F5.5°C 86% Calm Calm 3.0 mph4.8 kmh 29.34 in993.6 mb 0.00 in0.0 mm 0.00 in0.0 mm 0.03 in0.8 mm
08:02 AM 45.8°F7.7°C 42.2°F5.7°C 87% Calm Calm 2.0 mph3.2 kmh 29.33 in993.2 mb 0.00 in0.0 mm 0.00 in0.0 mm 0.03 in0.8 mm
07:56 AM 45.8°F7.7°C 42.2°F5.7°C 87% Calm Calm 4.0 mph6.4 kmh 29.33 in993.2 mb 0.00 in0.0 mm 0.00 in0.0 mm 0.03 in0.8 mm
07:51 AM 45.9°F7.7°C 42.2°F5.7°C 87% Calm Calm -- 29.34 in993.6 mb 0.00 in0.0 mm 0.00 in0.0 mm 0.03 in0.8 mm
07:46 AM 46.1°F7.8°C 42.4°F5.8°C 87% Calm Calm 1.0 mph1.6 kmh 29.34 in993.6 mb 0.00 in0.0 mm 0.00 in0.0 mm 0.03 in0.8 mm
07:41 AM 46.3°F7.9°C 42.3°F5.7°C 86% Calm Calm 1.0 mph1.6 kmh 29.34 in993.6 mb 0.00 in0.0 mm 0.00 in0.0 mm 0.03 in0.8 mm
07:36 AM 46.3°F7.9°C 42.3°F5.7°C 86% 1.0 mph SE1.6 kmh SE 4.0 mph6.4 kmh 29.34 in993.6 mb 0.00 in0.0 mm 0.00 in0.0 mm 0.03 in0.8 mm
07:32 AM 46.3°F7.9°C 42.6°F5.9°C 87% 2.0 mph SE3.2 kmh SE 4.0 mph6.4 kmh 29.34 in993.6 mb 0.00 in0.0 mm 0.00 in0.0 mm 0.03 in0.8 mm
07:26 AM 46.4°F8.0°C 42.7°F5.9°C 87% Calm Calm 3.0 mph4.8 kmh 29.34 in993.6 mb 0.04 in1.0 mm 0.00 in0.0 mm 0.03 in0.8 mm
07:21 AM 46.6°F8.1°C 42.9°F6.1°C 87% Calm Calm 3.0 mph4.8 kmh 29.34 in993.6 mb 0.04 in1.0 mm 0.00 in0.0 mm 0.03 in0.8 mm
07:17 AM 46.7°F8.2°C 43.0°F6.1°C 87% 3.0 mph ESE4.8 kmh ESE 5.0 mph8.0 kmh 29.34 in993.6 mb 0.04 in1.0 mm 0.00 in0.0 mm 0.03 in0.8 mm
07:11 AM 46.9°F8.3°C 42.9°F6.1°C 86% 1.0 mph SE1.6 kmh SE 4.0 mph6.4 kmh 29.34 in993.6 mb 0.06 in1.5 mm 0.00 in0.0 mm 0.02 in0.5 mm
07:06 AM 47.2°F8.4°C 42.9°F6.1°C 85% Calm Calm 4.0 mph6.4 kmh 29.34 in993.6 mb 0.07 in1.8 mm 0.00 in0.0 mm 0.02 in0.5 mm
07:02 AM 47.6°F8.7°C 43.0°F6.1°C 84% Calm Calm 2.0 mph3.2 kmh 29.34 in993.6 mb 0.07 in1.8 mm 0.08 in2.0 mm 0.02 in0.5 mm
06:56 AM 48.0°F8.9°C 43.1°F6.2°C 83% 1.0 mph E1.6 kmh E 6.0 mph9.7 kmh 29.34 in993.6 mb 0.00 in0.0 mm 0.00 in0.0 mm 0.01 in0.3 mm
06:51 AM 48.3°F9.1°C 43.1°F6.2°C 82% 1.0 mph ENE1.6 kmh ENE 6.0 mph9.7 kmh 29.34 in993.6 mb 0.00 in0.0 mm 0.00 in0.0 mm 0.00 in0.0 mm
06:46 AM 48.7°F9.3°C 43.1°F6.2°C 81% 3.0 mph SE4.8 kmh SE 7.0 mph11.3 kmh 29.34 in993.6 mb 0.00 in0.0 mm 0.00 in0.0 mm 0.00 in0.0 mm
06:41 AM 49.0°F9.4°C 42.8°F6.0°C 79% Calm Calm 5.0 mph8.0 kmh 29.34 in993.6 mb 0.00 in0.0 mm 0.00 in0.0 mm 0.00 in0.0 mm
06:36 AM 49.2°F9.6°C 43.0°F6.1°C 79% 1.0 mph N1.6 kmh N 4.0 mph6.4 kmh 29.34 in993.6 mb 0.00 in0.0 mm 0.00 in0.0 mm 0.00 in0.0 mm
06:31 AM 49.5°F9.7°C 42.6°F5.9°C 77% 2.0 mph NW3.2 kmh NW 3.0 mph4.8 kmh 29.34 in993.6 mb 0.00 in0.0 mm 0.00 in0.0 mm 0.00 in0.0 mm
06:26 AM 49.7°F9.8°C 42.8°F6.0°C 77% 4.0 mph E6.4 kmh E 11.0 mph17.7 kmh 29.34 in993.6 mb 0.00 in0.0 mm 0.00 in0.0 mm 0.00 in0.0 mm
06:16 AM 50.0°F10.0°C 42.7°F5.9°C 76% 2.0 mph SE3.2 kmh SE 10.0 mph16.1 kmh 29.34 in993.6 mb 0.00 in0.0 mm 0.00 in0.0 mm 0.00 in0.0 mm
06:11 AM 50.1°F10.1°C 42.8°F6.0°C 76% 4.0 mph ESE6.4 kmh ESE 8.0 mph12.9 kmh 29.34 in993.6 mb 0.00 in0.0 mm 0.00 in0.0 mm 0.00 in0.0 mm
06:06 AM 50.3°F10.2°C 43.0°F6.1°C 76% 2.0 mph WSW3.2 kmh WSW 9.0 mph14.5 kmh 29.34 in993.6 mb 0.00 in0.0 mm 0.00 in0.0 mm 0.00 in0.0 mm
06:01 AM 50.3°F10.2°C 42.7°F5.9°C 75% 3.0 mph SE4.8 kmh SE 9.0 mph14.5 kmh 29.33 in993.2 mb 0.00 in0.0 mm 0.00 in0.0 mm 0.00 in0.0 mm
05:56 AM 50.4°F10.2°C 42.8°F6.0°C 75% 2.0 mph SE3.2 kmh SE 9.0 mph14.5 kmh 29.33 in993.2 mb 0.00 in0.0 mm 0.00 in0.0 mm 0.00 in0.0 mm
05:51 AM 50.5°F10.3°C 42.9°F6.1°C 75% 3.0 mph E4.8 kmh E 7.0 mph11.3 kmh 29.34 in993.6 mb 0.00 in0.0 mm 0.00 in0.0 mm 0.00 in0.0 mm
05:47 AM 50.6°F10.3°C 43.0°F6.1°C 75% 3.0 mph SSE4.8 kmh SSE 7.0 mph11.3 kmh 29.33 in993.2 mb 0.00 in0.0 mm 0.00 in0.0 mm 0.00 in0.0 mm
05:41 AM 50.8°F10.4°C 42.8°F6.0°C 74% 4.0 mph SE6.4 kmh SE 4.0 mph6.4 kmh 29.33 in993.2 mb 0.00 in0.0 mm 0.00 in0.0 mm 0.00 in0.0 mm
05:36 AM 50.8°F10.4°C 42.8°F6.0°C 74% 6.0 mph SSE9.7 kmh SSE 10.0 mph16.1 kmh 29.34 in993.6 mb 0.00 in0.0 mm 0.00 in0.0 mm 0.00 in0.0 mm
05:32 AM 50.8°F10.4°C 42.8°F6.0°C 74% 5.0 mph SSE8.0 kmh SSE 8.0 mph12.9 kmh 29.33 in993.2 mb 0.00 in0.0 mm 0.00 in0.0 mm 0.00 in0.0 mm
05:26 AM 50.8°F10.4°C 42.8°F6.0°C 74% 5.0 mph SE8.0 kmh SE 12.0 mph19.3 kmh 29.34 in993.6 mb 0.00 in0.0 mm 0.00 in0.0 mm 0.00 in0.0 mm
05:21 AM 50.8°F10.4°C 43.2°F6.2°C 75% 6.0 mph SE9.7 kmh SE 12.0 mph19.3 kmh 29.34 in993.6 mb 0.00 in0.0 mm 0.00 in0.0 mm 0.00 in0.0 mm
05:16 AM 50.7°F10.4°C 43.1°F6.2°C 75% 3.0 mph ESE4.8 kmh ESE 12.0 mph19.3 kmh 29.34 in993.6 mb 0.00 in0.0 mm 0.00 in0.0 mm 0.00 in0.0 mm
05:11 AM 50.8°F10.4°C 43.2°F6.2°C 75% 5.0 mph SW8.0 kmh SW 5.0 mph8.0 kmh 29.33 in993.2 mb 0.00 in0.0 mm 0.00 in0.0 mm 0.00 in0.0 mm
05:06 AM 50.9°F10.5°C 43.3°F6.3°C 75% 6.0 mph E9.7 kmh E 13.0 mph20.9 kmh 29.33 in993.2 mb 0.00 in0.0 mm 0.00 in0.0 mm 0.00 in0.0 mm
05:02 AM 51.0°F10.6°C 43.4°F6.3°C 75% 3.0 mph E4.8 kmh E 13.0 mph20.9 kmh 29.33 in993.2 mb 0.00 in0.0 mm 0.00 in0.0 mm 0.00 in0.0 mm
04:56 AM 51.0°F10.6°C 43.4°F6.3°C 75% 3.0 mph E4.8 kmh E 15.0 mph24.1 kmh 29.33 in993.2 mb 0.00 in0.0 mm 0.00 in0.0 mm 0.00 in0.0 mm
04:51 AM 51.1°F10.6°C 43.4°F6.3°C 75% 10.0 mph ESE16.1 kmh ESE 15.0 mph24.1 kmh 29.33 in993.2 mb 0.00 in0.0 mm 0.00 in0.0 mm 0.00 in0.0 mm
04:46 AM 51.2°F10.7°C 43.5°F6.4°C 75% 5.0 mph ESE8.0 kmh ESE 17.0 mph27.4 kmh 29.33 in993.2 mb 0.00 in0.0 mm 0.00 in0.0 mm 0.00 in0.0 mm
04:41 AM 51.2°F10.7°C 43.2°F6.2°C 74% 8.0 mph SSE12.9 kmh SSE 13.0 mph20.9 kmh 29.33 in993.2 mb 0.00 in0.0 mm 0.00 in0.0 mm 0.00 in0.0 mm
04:36 AM 51.4°F10.8°C 43.4°F6.3°C 74% 4.0 mph SE6.4 kmh SE 18.0 mph29.0 kmh 29.33 in993.2 mb 0.00 in0.0 mm 0.00 in0.0 mm 0.00 in0.0 mm
04:31 AM 51.5°F10.8°C 43.5°F6.4°C 74% 11.0 mph NE17.7 kmh NE 18.0 mph29.0 kmh 29.33 in993.2 mb 0.00 in0.0 mm 0.00 in0.0 mm 0.00 in0.0 mm
04:26 AM 51.6°F10.9°C 43.2°F6.2°C 73% 7.0 mph E11.3 kmh E 17.0 mph27.4 kmh 29.33 in993.2 mb 0.00 in0.0 mm 0.00 in0.0 mm 0.00 in0.0 mm
04:21 AM 51.8°F11.0°C 43.4°F6.3°C 73% 6.0 mph SE9.7 kmh SE 16.0 mph25.7 kmh 29.33 in993.2 mb 0.00 in0.0 mm 0.00 in0.0 mm 0.00 in0.0 mm
04:16 AM 52.1°F11.2°C 43.3°F6.3°C 72% 4.0 mph SE6.4 kmh SE 23.0 mph37.0 kmh 29.33 in993.2 mb 0.00 in0.0 mm 0.00 in0.0 mm 0.00 in0.0 mm
04:11 AM 52.2°F11.2°C 43.4°F6.3°C 72% 12.0 mph E19.3 kmh E 23.0 mph37.0 kmh 29.33 in993.2 mb 0.00 in0.0 mm 0.00 in0.0 mm 0.00 in0.0 mm
04:06 AM 52.3°F11.3°C 43.5°F6.4°C 72% 16.0 mph ESE25.7 kmh ESE 16.0 mph25.7 kmh 29.33 in993.2 mb 0.00 in0.0 mm 0.00 in0.0 mm 0.00 in0.0 mm
04:01 AM 52.4°F11.3°C 43.6°F6.4°C 72% 2.0 mph SE3.2 kmh SE 11.0 mph17.7 kmh 29.33 in993.2 mb 0.00 in0.0 mm 0.00 in0.0 mm 0.00 in0.0 mm
03:56 AM 52.4°F11.3°C 43.6°F6.4°C 72% 8.0 mph ESE12.9 kmh ESE 23.0 mph37.0 kmh 29.34 in993.6 mb 0.00 in0.0 mm 0.00 in0.0 mm 0.00 in0.0 mm
03:51 AM 52.2°F11.2°C 43.8°F6.6°C 73% 5.0 mph E8.0 kmh E 8.0 mph12.9 kmh 29.34 in993.6 mb 0.00 in0.0 mm 0.00 in0.0 mm 0.00 in0.0 mm
03:47 AM 52.3°F11.3°C 43.9°F6.6°C 73% 7.0 mph E11.3 kmh E 16.0 mph25.7 kmh 29.34 in993.6 mb 0.00 in0.0 mm 0.00 in0.0 mm 0.00 in0.0 mm
03:41 AM 52.4°F11.3°C 43.6°F6.4°C 72% 7.0 mph E11.3 kmh E 16.0 mph25.7 kmh 29.35 in993.9 mb 0.00 in0.0 mm 0.00 in0.0 mm 0.00 in0.0 mm
03:36 AM 52.4°F11.3°C 43.6°F6.4°C 72% 7.0 mph E11.3 kmh E 18.0 mph29.0 kmh 29.35 in993.9 mb 0.00 in0.0 mm 0.00 in0.0 mm 0.00 in0.0 mm
03:31 AM 52.4°F11.3°C 43.6°F6.4°C 72% 6.0 mph SE9.7 kmh SE 11.0 mph17.7 kmh 29.35 in993.9 mb 0.00 in0.0 mm 0.00 in0.0 mm 0.00 in0.0 mm
03:26 AM 52.5°F11.4°C 43.7°F6.5°C 72% 3.0 mph SE4.8 kmh SE 13.0 mph20.9 kmh 29.35 in993.9 mb 0.00 in0.0 mm 0.00 in0.0 mm 0.00 in0.0 mm
03:21 AM 52.6°F11.4°C 43.8°F6.6°C 72% 12.0 mph ESE19.3 kmh ESE 13.0 mph20.9 kmh 29.36 in994.2 mb 0.00 in0.0 mm 0.00 in0.0 mm 0.00 in0.0 mm
03:17 AM 52.5°F11.4°C 44.1°F6.7°C 73% 5.0 mph SSE8.0 kmh SSE 10.0 mph16.1 kmh 29.36 in994.2 mb 0.00 in0.0 mm 0.00 in0.0 mm 0.00 in0.0 mm
03:11 AM 52.8°F11.6°C 44.0°F6.7°C 72% 2.0 mph S3.2 kmh S 10.0 mph16.1 kmh 29.36 in994.2 mb 0.00 in0.0 mm 0.00 in0.0 mm 0.00 in0.0 mm
03:06 AM 53.0°F11.7°C 43.8°F6.6°C 71% 14.0 mph E22.5 kmh E 19.0 mph30.6 kmh 29.36 in994.2 mb 0.00 in0.0 mm 0.00 in0.0 mm 0.00 in0.0 mm
03:01 AM 53.0°F11.7°C 43.8°F6.6°C 71% 11.0 mph SE17.7 kmh SE 19.0 mph30.6 kmh 29.36 in994.2 mb 0.00 in0.0 mm 0.00 in0.0 mm 0.00 in0.0 mm
02:56 AM 53.1°F11.7°C 44.3°F6.8°C 72% 8.0 mph ESE12.9 kmh ESE 17.0 mph27.4 kmh 29.37 in994.6 mb 0.00 in0.0 mm 0.00 in0.0 mm 0.00 in0.0 mm
02:51 AM 53.1°F11.7°C 44.3°F6.8°C 72% 6.0 mph E9.7 kmh E 11.0 mph17.7 kmh 29.37 in994.6 mb 0.00 in0.0 mm 0.00 in0.0 mm 0.00 in0.0 mm
02:47 AM 53.1°F11.7°C 44.3°F6.8°C 72% 12.0 mph E19.3 kmh E 16.0 mph25.7 kmh 29.37 in994.6 mb 0.00 in0.0 mm 0.00 in0.0 mm 0.00 in0.0 mm
02:41 AM 53.0°F11.7°C 44.6°F7.0°C 73% 7.0 mph ESE11.3 kmh ESE 12.0 mph19.3 kmh 29.37 in994.6 mb 0.00 in0.0 mm 0.00 in0.0 mm 0.00 in0.0 mm
02:36 AM 52.9°F11.6°C 44.5°F6.9°C 73% 8.0 mph ESE12.9 kmh ESE 19.0 mph30.6 kmh 29.36 in994.2 mb 0.00 in0.0 mm 0.00 in0.0 mm 0.00 in0.0 mm
02:32 AM 52.8°F11.6°C 44.7°F7.1°C 74% 9.0 mph ESE14.5 kmh ESE 12.0 mph19.3 kmh 29.36 in994.2 mb 0.00 in0.0 mm 0.00 in0.0 mm 0.00 in0.0 mm
02:26 AM 52.7°F11.5°C 44.6°F7.0°C 74% 11.0 mph E17.7 kmh E 19.0 mph30.6 kmh 29.36 in994.2 mb 0.00 in0.0 mm 0.00 in0.0 mm 0.00 in0.0 mm
02:21 AM 52.8°F11.6°C 44.7°F7.1°C 74% 7.0 mph E11.3 kmh E 10.0 mph16.1 kmh 29.36 in994.2 mb 0.00 in0.0 mm 0.00 in0.0 mm 0.00 in0.0 mm
02:17 AM 52.7°F11.5°C 44.6°F7.0°C 74% 6.0 mph ESE9.7 kmh ESE 15.0 mph24.1 kmh 29.36 in994.2 mb 0.00 in0.0 mm 0.00 in0.0 mm 0.00 in0.0 mm
02:11 AM 52.6°F11.4°C 44.9°F7.2°C 75% 3.0 mph E4.8 kmh E 13.0 mph20.9 kmh 29.36 in994.2 mb 0.00 in0.0 mm 0.00 in0.0 mm 0.00 in0.0 mm
02:06 AM 52.7°F11.5°C 45.0°F7.2°C 75% 9.0 mph E14.5 kmh E 16.0 mph25.7 kmh 29.37 in994.6 mb 0.00 in0.0 mm 0.00 in0.0 mm 0.00 in0.0 mm
02:02 AM 52.6°F11.4°C 44.9°F7.2°C 75% 5.0 mph ESE8.0 kmh ESE 12.0 mph19.3 kmh 29.37 in994.6 mb 0.00 in0.0 mm 0.00 in0.0 mm 0.00 in0.0 mm
01:56 AM 52.5°F11.4°C 44.8°F7.1°C 75% 6.0 mph SE9.7 kmh SE 13.0 mph20.9 kmh 29.37 in994.6 mb 0.00 in0.0 mm 0.00 in0.0 mm 0.00 in0.0 mm
01:51 AM 52.5°F11.4°C 44.8°F7.1°C 75% 10.0 mph E16.1 kmh E 10.0 mph16.1 kmh 29.37 in994.6 mb 0.00 in0.0 mm 0.00 in0.0 mm 0.00 in0.0 mm
01:47 AM 52.6°F11.4°C 44.9°F7.2°C 75% 5.0 mph E8.0 kmh E 11.0 mph17.7 kmh 29.38 in994.9 mb 0.00 in0.0 mm 0.00 in0.0 mm 0.00 in0.0 mm
01:41 AM 52.6°F11.4°C 44.9°F7.2°C 75% 8.0 mph E12.9 kmh E 11.0 mph17.7 kmh 29.38 in994.9 mb 0.00 in0.0 mm 0.00 in0.0 mm 0.00 in0.0 mm
01:36 AM 52.7°F11.5°C 45.0°F7.2°C 75% 12.0 mph ESE19.3 kmh ESE 21.0 mph33.8 kmh 29.38 in994.9 mb 0.00 in0.0 mm 0.00 in0.0 mm 0.00 in0.0 mm
01:32 AM 52.8°F11.6°C 44.7°F7.1°C 74% 10.0 mph ESE16.1 kmh ESE 12.0 mph19.3 kmh 29.38 in994.9 mb 0.00 in0.0 mm 0.00 in0.0 mm 0.00 in0.0 mm
01:26 AM 52.9°F11.6°C 44.8°F7.1°C 74% 14.0 mph ESE22.5 kmh ESE 16.0 mph25.7 kmh 29.37 in994.6 mb 0.00 in0.0 mm 0.00 in0.0 mm 0.00 in0.0 mm
01:21 AM 52.9°F11.6°C 44.8°F7.1°C 74% 9.0 mph E14.5 kmh E 12.0 mph19.3 kmh 29.38 in994.9 mb 0.00 in0.0 mm 0.00 in0.0 mm 0.00 in0.0 mm
01:16 AM 52.9°F11.6°C 45.2°F7.3°C 75% 19.0 mph SE30.6 kmh SE 19.0 mph30.6 kmh 29.37 in994.6 mb 0.00 in0.0 mm 0.00 in0.0 mm 0.00 in0.0 mm
01:11 AM 52.9°F11.6°C 45.2°F7.3°C 75% 13.0 mph ESE20.9 kmh ESE 16.0 mph25.7 kmh 29.38 in994.9 mb 0.00 in0.0 mm 0.00 in0.0 mm 0.00 in0.0 mm
01:06 AM 52.8°F11.6°C 45.1°F7.3°C 75% 16.0 mph ENE25.7 kmh ENE 16.0 mph25.7 kmh 29.37 in994.6 mb 0.00 in0.0 mm 0.00 in0.0 mm 0.00 in0.0 mm
01:02 AM 52.9°F11.6°C 45.2°F7.3°C 75% 7.0 mph E11.3 kmh E 11.0 mph17.7 kmh 29.37 in994.6 mb 0.00 in0.0 mm 0.00 in0.0 mm 0.00 in0.0 mm
12:56 AM 53.0°F11.7°C 45.3°F7.4°C 75% 16.0 mph ESE25.7 kmh ESE 19.0 mph30.6 kmh 29.38 in994.9 mb 0.00 in0.0 mm 0.00 in0.0 mm 0.00 in0.0 mm
12:51 AM 53.1°F11.7°C 45.4°F7.4°C 75% 6.0 mph E9.7 kmh E 12.0 mph19.3 kmh 29.38 in994.9 mb 0.00 in0.0 mm 0.00 in0.0 mm 0.00 in0.0 mm
12:46 AM 53.0°F11.7°C 45.6°F7.6°C 76% 12.0 mph E19.3 kmh E 12.0 mph19.3 kmh 29.38 in994.9 mb 0.00 in0.0 mm 0.00 in0.0 mm 0.00 in0.0 mm
12:41 AM 53.1°F11.7°C 45.7°F7.6°C 76% 12.0 mph E19.3 kmh E 12.0 mph19.3 kmh 29.39 in995.3 mb 0.00 in0.0 mm 0.00 in0.0 mm 0.00 in0.0 mm
12:36 AM 53.3°F11.8°C 45.6°F7.6°C 75% 8.0 mph E12.9 kmh E 13.0 mph20.9 kmh 29.39 in995.3 mb 0.00 in0.0 mm 0.00 in0.0 mm 0.00 in0.0 mm
12:32 AM 53.4°F11.9°C 45.7°F7.6°C 75% 11.0 mph E17.7 kmh E 12.0 mph19.3 kmh 29.39 in995.3 mb 0.00 in0.0 mm 0.00 in0.0 mm 0.00 in0.0 mm
12:26 AM 53.4°F11.9°C 45.7°F7.6°C 75% 15.0 mph E24.1 kmh E 18.0 mph29.0 kmh 29.40 in995.6 mb 0.00 in0.0 mm 0.00 in0.0 mm 0.00 in0.0 mm
12:21 AM 53.5°F11.9°C 45.8°F7.7°C 75% 12.0 mph E19.3 kmh E 12.0 mph19.3 kmh 29.40 in995.6 mb 0.00 in0.0 mm 0.00 in0.0 mm 0.00 in0.0 mm
12:17 AM 53.7°F12.1°C 46.0°F7.8°C 75% 10.0 mph ESE16.1 kmh ESE 14.0 mph22.5 kmh 29.41 in995.9 mb 0.00 in0.0 mm 0.00 in0.0 mm 0.00 in0.0 mm
12:11 AM 53.8°F12.1°C 46.1°F7.8°C 75% 11.0 mph ESE17.7 kmh ESE 14.0 mph22.5 kmh 29.41 in995.9 mb 0.00 in0.0 mm 0.00 in0.0 mm 0.00 in0.0 mm
12:06 AM 53.8°F12.1°C 46.1°F7.8°C 75% 9.0 mph ESE14.5 kmh ESE 17.0 mph27.4 kmh 29.41 in995.9 mb 0.00 in0.0 mm 0.00 in0.0 mm 0.00 in0.0 mm
12:02 AM 53.9°F12.2°C 46.2°F7.9°C 75% 17.0 mph E27.4 kmh E 17.0 mph27.4 kmh 29.42 in996.3 mb 0.00 in0.0 mm 0.00 in0.0 mm 0.00 in0.0 mm